sensor_id;sensor_type;location;lat;lon;timestamp;pressure;altitude;pressure_sealevel;temperature;humidity
11856;BME280;5987;53.140;8.904;2023-04-03T00:01:18;103301.81;;;0.00;100.00
11856;BME280;5987;53.140;8.904;2023-04-03T00:04:22;103306.53;;;-0.09;100.00
11856;BME280;5987;53.140;8.904;2023-04-03T00:07:27;103305.41;;;-0.14;100.00
11856;BME280;5987;53.140;8.904;2023-04-03T00:10:31;103313.16;;;-0.32;100.00
11856;BME280;5987;53.140;8.904;2023-04-03T00:13:35;103315.72;;;-0.32;100.00
11856;BME280;5987;53.140;8.904;2023-04-03T00:16:40;103317.44;;;-0.33;100.00
11856;BME280;5987;53.140;8.904;2023-04-03T00:19:43;103320.59;;;-0.39;100.00
11856;BME280;5987;53.140;8.904;2023-04-03T00:22:48;103322.97;;;-0.43;100.00
11856;BME280;5987;53.140;8.904;2023-04-03T00:25:53;103320.25;;;-0.46;100.00
11856;BME280;5987;53.140;8.904;2023-04-03T00:28:57;103320.25;;;-0.46;100.00
11856;BME280;5987;53.140;8.904;2023-04-03T00:32:01;103327.59;;;-0.54;100.00
11856;BME280;5987;53.140;8.904;2023-04-03T00:35:05;103325.16;;;-0.51;100.00
11856;BME280;5987;53.140;8.904;2023-04-03T00:38:10;103335.41;;;-0.53;100.00
11856;BME280;5987;53.140;8.904;2023-04-03T00:41:14;103334.47;;;-0.55;100.00
11856;BME280;5987;53.140;8.904;2023-04-03T00:44:23;103340.34;;;-0.57;100.00
11856;BME280;5987;53.140;8.904;2023-04-03T00:47:46;103332.09;;;-0.50;100.00
11856;BME280;5987;53.140;8.904;2023-04-03T00:50:50;103333.91;;;-0.65;100.00
11856;BME280;5987;53.140;8.904;2023-04-03T00:54:01;103335.91;;;-0.60;100.00
11856;BME280;5987;53.140;8.904;2023-04-03T00:57:07;103333.41;;;-0.58;100.00
11856;BME280;5987;53.140;8.904;2023-04-03T01:00:17;103331.34;;;-0.65;100.00
11856;BME280;5987;53.140;8.904;2023-04-03T01:03:22;103331.41;;;-0.64;100.00
11856;BME280;5987;53.140;8.904;2023-04-03T01:06:29;103332.41;;;-0.78;100.00
11856;BME280;5987;53.140;8.904;2023-04-03T01:09:37;103339.34;;;-0.77;100.00
11856;BME280;5987;53.140;8.904;2023-04-03T01:12:44;103339.53;;;-0.91;100.00
11856;BME280;5987;53.140;8.904;2023-04-03T01:15:48;103338.94;;;-0.85;100.00
11856;BME280;5987;53.140;8.904;2023-04-03T01:18:52;103338.66;;;-0.91;100.00
11856;BME280;5987;53.140;8.904;2023-04-03T01:22:15;103343.75;;;-0.93;100.00
11856;BME280;5987;53.140;8.904;2023-04-03T01:25:24;103348.78;;;-0.94;100.00
11856;BME280;5987;53.140;8.904;2023-04-03T01:28:32;103342.91;;;-0.92;100.00
11856;BME280;5987;53.140;8.904;2023-04-03T01:31:52;103357.50;;;-0.92;100.00
11856;BME280;5987;53.140;8.904;2023-04-03T01:34:56;103351.63;;;-0.90;100.00
11856;BME280;5987;53.140;8.904;2023-04-03T01:37:59;103357.19;;;-0.98;100.00
11856;BME280;5987;53.140;8.904;2023-04-03T01:41:03;103356.13;;;-1.02;100.00
11856;BME280;5987;53.140;8.904;2023-04-03T01:44:07;103354.34;;;-1.03;100.00
11856;BME280;5987;53.140;8.904;2023-04-03T01:47:12;103359.44;;;-1.05;100.00
11856;BME280;5987;53.140;8.904;2023-04-03T01:50:15;103353.34;;;-1.07;100.00
11856;BME280;5987;53.140;8.904;2023-04-03T01:53:19;103361.78;;;-1.09;100.00
11856;BME280;5987;53.140;8.904;2023-04-03T01:56:23;103354.22;;;-1.06;100.00
11856;BME280;5987;53.140;8.904;2023-04-03T01:59:27;103356.63;;;-1.09;100.00
11856;BME280;5987;53.140;8.904;2023-04-03T02:02:32;103364.22;;;-1.12;100.00
11856;BME280;5987;53.140;8.904;2023-04-03T02:05:36;103373.53;;;-1.14;100.00
11856;BME280;5987;53.140;8.904;2023-04-03T02:08:39;103376.13;;;-1.14;100.00
11856;BME280;5987;53.140;8.904;2023-04-03T02:11:43;103375.97;;;-1.17;100.00
11856;BME280;5987;53.140;8.904;2023-04-03T02:14:47;103372.59;;;-1.16;100.00
11856;BME280;5987;53.140;8.904;2023-04-03T02:17:52;103374.03;;;-1.22;100.00
11856;BME280;5987;53.140;8.904;2023-04-03T02:20:55;103369.38;;;-1.12;100.00
11856;BME280;5987;53.140;8.904;2023-04-03T02:24:00;103369.19;;;-1.15;100.00
11856;BME280;5987;53.140;8.904;2023-04-03T02:27:04;103365.66;;;-1.17;100.00
11856;BME280;5987;53.140;8.904;2023-04-03T02:30:08;103372.03;;;-1.11;100.00
11856;BME280;5987;53.140;8.904;2023-04-03T02:33:14;103375.09;;;-1.18;100.00
11856;BME280;5987;53.140;8.904;2023-04-03T02:36:17;103370.09;;;-1.15;100.00
11856;BME280;5987;53.140;8.904;2023-04-03T02:39:21;103368.94;;;-1.20;100.00
11856;BME280;5987;53.140;8.904;2023-04-03T02:42:25;103375.25;;;-1.15;100.00
11856;BME280;5987;53.140;8.904;2023-04-03T02:45:28;103375.97;;;-1.17;100.00
11856;BME280;5987;53.140;8.904;2023-04-03T02:48:33;103370.66;;;-1.21;100.00
11856;BME280;5987;53.140;8.904;2023-04-03T02:51:37;103379.59;;;-1.30;100.00
11856;BME280;5987;53.140;8.904;2023-04-03T02:54:41;103382.56;;;-1.23;100.00
11856;BME280;5987;53.140;8.904;2023-04-03T02:57:44;103382.41;;;-1.26;100.00
11856;BME280;5987;53.140;8.904;2023-04-03T03:00:48;103378.88;;;-1.28;100.00
11856;BME280;5987;53.140;8.904;2023-04-03T03:03:53;103377.16;;;-1.27;100.00
11856;BME280;5987;53.140;8.904;2023-04-03T03:06:56;103380.63;;;-1.27;100.00
11856;BME280;5987;53.140;8.904;2023-04-03T03:10:01;103383.03;;;-1.30;100.00
11856;BME280;5987;53.140;8.904;2023-04-03T03:13:05;103382.97;;;-1.31;100.00
11856;BME280;5987;53.140;8.904;2023-04-03T03:16:09;103378.34;;;-1.37;100.00
11856;BME280;5987;53.140;8.904;2023-04-03T03:19:14;103390.44;;;-1.36;100.00
11856;BME280;5987;53.140;8.904;2023-04-03T03:22:17;103386.72;;;-1.41;100.00
11856;BME280;5987;53.140;8.904;2023-04-03T03:25:21;103393.44;;;-1.28;100.00
11856;BME280;5987;53.140;8.904;2023-04-03T03:28:26;103390.38;;;-1.38;100.00
11856;BME280;5987;53.140;8.904;2023-04-03T03:31:30;103383.28;;;-1.42;100.00
11856;BME280;5987;53.140;8.904;2023-04-03T03:34:35;103382.38;;;-1.42;100.00
11856;BME280;5987;53.140;8.904;2023-04-03T03:37:39;103384.53;;;-1.50;100.00
11856;BME280;5987;53.140;8.904;2023-04-03T03:40:42;103383.19;;;-1.43;100.00
11856;BME280;5987;53.140;8.904;2023-04-03T03:43:46;103384.38;;;-1.53;100.00
11856;BME280;5987;53.140;8.904;2023-04-03T03:46:50;103385.50;;;-1.48;100.00
11856;BME280;5987;53.140;8.904;2023-04-03T03:49:55;103382.59;;;-1.54;100.00
11856;BME280;5987;53.140;8.904;2023-04-03T03:52:58;103383.94;;;-1.61;100.00
11856;BME280;5987;53.140;8.904;2023-04-03T03:56:02;103390.16;;;-1.57;100.00
11856;BME280;5987;53.140;8.904;2023-04-03T03:59:07;103392.81;;;-1.56;100.00
11856;BME280;5987;53.140;8.904;2023-04-03T04:02:11;103391.84;;;-1.58;100.00
11856;BME280;5987;53.140;8.904;2023-04-03T04:05:16;103386.69;;;-1.58;100.00
11856;BME280;5987;53.140;8.904;2023-04-03T04:08:20;103391.03;;;-1.57;100.00
11856;BME280;5987;53.140;8.904;2023-04-03T04:11:23;103392.59;;;-1.60;100.00
11856;BME280;5987;53.140;8.904;2023-04-03T04:14:27;103396.19;;;-1.57;100.00
11856;BME280;5987;53.140;8.904;2023-04-03T04:17:31;103399.69;;;-1.56;100.00
11856;BME280;5987;53.140;8.904;2023-04-03T04:20:36;103405.72;;;-1.56;100.00
11856;BME280;5987;53.140;8.904;2023-04-03T04:23:39;103404.72;;;-1.58;100.00
11856;BME280;5987;53.140;8.904;2023-04-03T04:26:43;103404.72;;;-1.58;100.00
11856;BME280;5987;53.140;8.904;2023-04-03T04:29:47;103411.75;;;-1.55;100.00
11856;BME280;5987;53.140;8.904;2023-04-03T04:32:50;103414.59;;;-1.50;100.00
11856;BME280;5987;53.140;8.904;2023-04-03T04:35:55;103413.75;;;-1.49;100.00
11856;BME280;5987;53.140;8.904;2023-04-03T04:38:59;103418.75;;;-1.52;100.00
11856;BME280;5987;53.140;8.904;2023-04-03T04:42:03;103418.03;;;-1.50;100.00
11856;BME280;5987;53.140;8.904;2023-04-03T04:45:08;103414.47;;;-1.52;100.00
11856;BME280;5987;53.140;8.904;2023-04-03T04:48:12;103420.53;;;-1.51;100.00
11856;BME280;5987;53.140;8.904;2023-04-03T04:51:18;103427.28;;;-1.53;100.00
11856;BME280;5987;53.140;8.904;2023-04-03T04:54:21;103436.72;;;-1.54;100.00
11856;BME280;5987;53.140;8.904;2023-04-03T04:57:25;103434.06;;;-1.56;100.00
11856;BME280;5987;53.140;8.904;2023-04-03T05:00:29;103435.91;;;-1.53;100.00
11856;BME280;5987;53.140;8.904;2023-04-03T05:03:34;103439.91;;;-1.58;100.00
11856;BME280;5987;53.140;8.904;2023-04-03T05:06:39;103438.56;;;-1.51;100.00
11856;BME280;5987;53.140;8.904;2023-04-03T05:09:43;103441.69;;;-1.57;100.00
11856;BME280;5987;53.140;8.904;2023-04-03T05:12:46;103448.88;;;-1.51;100.00
11856;BME280;5987;53.140;8.904;2023-04-03T05:15:50;103446.94;;;-1.56;100.00
11856;BME280;5987;53.140;8.904;2023-04-03T05:18:54;103450.81;;;-1.47;100.00
11856;BME280;5987;53.140;8.904;2023-04-03T05:21:59;103456.06;;;-1.46;100.00
11856;BME280;5987;53.140;8.904;2023-04-03T05:25:03;103453.56;;;-1.44;100.00
11856;BME280;5987;53.140;8.904;2023-04-03T05:28:07;103445.19;;;-1.40;100.00
11856;BME280;5987;53.140;8.904;2023-04-03T05:31:10;103445.38;;;-1.37;100.00
11856;BME280;5987;53.140;8.904;2023-04-03T05:34:14;103449.56;;;-1.39;100.00
11856;BME280;5987;53.140;8.904;2023-04-03T05:37:19;103453.41;;;-1.31;100.00
11856;BME280;5987;53.140;8.904;2023-04-03T05:40:23;103452.69;;;-1.28;100.00
11856;BME280;5987;53.140;8.904;2023-04-03T05:43:27;103450.56;;;-1.21;100.00
11856;BME280;5987;53.140;8.904;2023-04-03T05:46:31;103458.44;;;-1.17;100.00
11856;BME280;5987;53.140;8.904;2023-04-03T05:49:35;103455.63;;;-1.06;100.00
11856;BME280;5987;53.140;8.904;2023-04-03T05:52:48;103455.75;;;-1.04;100.00
11856;BME280;5987;53.140;8.904;2023-04-03T05:55:52;103457.38;;;-0.90;100.00
11856;BME280;5987;53.140;8.904;2023-04-03T05:58:56;103447.78;;;-0.76;100.00
11856;BME280;5987;53.140;8.904;2023-04-03T06:02:00;103460.09;;;-0.70;100.00
11856;BME280;5987;53.140;8.904;2023-04-03T06:05:05;103465.09;;;-0.57;100.00
11856;BME280;5987;53.140;8.904;2023-04-03T06:08:10;103463.13;;;-0.44;100.00
11856;BME280;5987;53.140;8.904;2023-04-03T06:11:14;103462.00;;;-0.33;100.00
11856;BME280;5987;53.140;8.904;2023-04-03T06:14:18;103471.91;;;-0.24;100.00
11856;BME280;5987;53.140;8.904;2023-04-03T06:17:22;103472.75;;;-0.07;100.00
11856;BME280;5987;53.140;8.904;2023-04-03T06:20:26;103470.25;;;0.12;100.00
11856;BME280;5987;53.140;8.904;2023-04-03T06:23:31;103473.38;;;0.23;100.00
11856;BME280;5987;53.140;8.904;2023-04-03T06:26:36;103470.94;;;0.26;100.00
11856;BME280;5987;53.140;8.904;2023-04-03T06:29:39;103477.38;;;0.34;100.00
11856;BME280;5987;53.140;8.904;2023-04-03T06:32:43;103481.56;;;0.50;100.00
11856;BME280;5987;53.140;8.904;2023-04-03T06:35:47;103479.50;;;0.61;100.00
11856;BME280;5987;53.140;8.904;2023-04-03T06:38:52;103477.75;;;0.80;100.00
11856;BME280;5987;53.140;8.904;2023-04-03T06:41:56;103475.22;;;0.99;100.00
11856;BME280;5987;53.140;8.904;2023-04-03T06:44:59;103482.44;;;1.07;100.00
11856;BME280;5987;53.140;8.904;2023-04-03T06:48:04;103479.59;;;1.20;100.00
11856;BME280;5987;53.140;8.904;2023-04-03T06:51:20;103482.88;;;1.55;100.00
11856;BME280;5987;53.140;8.904;2023-04-03T06:54:25;103489.78;;;1.56;100.00
11856;BME280;5987;53.140;8.904;2023-04-03T06:57:29;103497.03;;;2.04;100.00
11856;BME280;5987;53.140;8.904;2023-04-03T07:00:33;103500.09;;;2.16;100.00
11856;BME280;5987;53.140;8.904;2023-04-03T07:03:37;103502.13;;;2.23;100.00
11856;BME280;5987;53.140;8.904;2023-04-03T07:06:41;103512.34;;;2.63;100.00
11856;BME280;5987;53.140;8.904;2023-04-03T07:09:46;103495.75;;;2.80;100.00
11856;BME280;5987;53.140;8.904;2023-04-03T07:12:50;103506.72;;;2.73;100.00
11856;BME280;5987;53.140;8.904;2023-04-03T07:15:54;103506.56;;;3.15;100.00
11856;BME280;5987;53.140;8.904;2023-04-03T07:18:58;103500.66;;;3.19;100.00
11856;BME280;5987;53.140;8.904;2023-04-03T07:22:02;103495.69;;;3.50;100.00
11856;BME280;5987;53.140;8.904;2023-04-03T07:25:08;103504.13;;;3.68;100.00
11856;BME280;5987;53.140;8.904;2023-04-03T07:28:13;103507.59;;;3.93;100.00
11856;BME280;5987;53.140;8.904;2023-04-03T07:31:17;103511.78;;;3.89;100.00
11856;BME280;5987;53.140;8.904;2023-04-03T07:34:21;103510.72;;;3.83;100.00
11856;BME280;5987;53.140;8.904;2023-04-03T07:37:25;103505.66;;;4.13;100.00
11856;BME280;5987;53.140;8.904;2023-04-03T07:40:30;103513.88;;;4.00;100.00
11856;BME280;5987;53.140;8.904;2023-04-03T07:43:34;103507.78;;;4.52;100.00
11856;BME280;5987;53.140;8.904;2023-04-03T07:46:37;103500.88;;;4.81;100.00
11856;BME280;5987;53.140;8.904;2023-04-03T07:49:41;103500.84;;;4.80;100.00
11856;BME280;5987;53.140;8.904;2023-04-03T07:52:48;103505.69;;;4.96;100.00
11856;BME280;5987;53.140;8.904;2023-04-03T07:55:58;103505.97;;;5.07;100.00
11856;BME280;5987;53.140;8.904;2023-04-03T07:59:02;103510.03;;;5.28;100.00
11856;BME280;5987;53.140;8.904;2023-04-03T08:02:07;103506.69;;;5.02;100.00
11856;BME280;5987;53.140;8.904;2023-04-03T08:05:11;103503.59;;;5.15;100.00
11856;BME280;5987;53.140;8.904;2023-04-03T08:08:18;103500.25;;;5.19;100.00
11856;BME280;5987;53.140;8.904;2023-04-03T08:11:24;103503.25;;;5.03;100.00
11856;BME280;5987;53.140;8.904;2023-04-03T08:14:31;103503.31;;;5.06;100.00
11856;BME280;5987;53.140;8.904;2023-04-03T08:17:36;103499.88;;;5.37;100.00
11856;BME280;5987;53.140;8.904;2023-04-03T08:20:40;103504.97;;;5.64;100.00
11856;BME280;5987;53.140;8.904;2023-04-03T08:23:44;103501.63;;;5.69;100.00
11856;BME280;5987;53.140;8.904;2023-04-03T08:26:49;103498.81;;;5.62;98.48
11856;BME280;5987;53.140;8.904;2023-04-03T08:29:52;103491.25;;;5.40;85.34
11856;BME280;5987;53.140;8.904;2023-04-03T08:32:56;103496.06;;;5.56;82.45
11856;BME280;5987;53.140;8.904;2023-04-03T08:36:00;103497.06;;;5.29;80.63
11856;BME280;5987;53.140;8.904;2023-04-03T08:39:03;103485.94;;;5.35;80.09
11856;BME280;5987;53.140;8.904;2023-04-03T08:42:19;103487.56;;;5.97;82.15
11856;BME280;5987;53.140;8.904;2023-04-03T08:45:42;103495.09;;;5.86;75.97
11856;BME280;5987;53.140;8.904;2023-04-03T08:48:49;103490.31;;;6.01;69.15
11856;BME280;5987;53.140;8.904;2023-04-03T08:51:54;103487.66;;;6.00;66.88
11856;BME280;5987;53.140;8.904;2023-04-03T08:55:01;103494.44;;;5.95;59.95
11856;BME280;5987;53.140;8.904;2023-04-03T08:58:12;103488.31;;;5.93;57.14
11856;BME280;5987;53.140;8.904;2023-04-03T09:01:20;103484.28;;;6.04;57.48
11856;BME280;5987;53.140;8.904;2023-04-03T09:04:30;103485.78;;;6.29;63.66
11856;BME280;5987;53.140;8.904;2023-04-03T09:07:42;103476.81;;;6.56;66.25
11856;BME280;5987;53.140;8.904;2023-04-03T09:10:59;103478.81;;;6.68;55.38
11856;BME280;5987;53.140;8.904;2023-04-03T09:14:21;103487.91;;;6.09;56.57
11856;BME280;5987;53.140;8.904;2023-04-03T09:17:41;103489.81;;;5.83;54.35
11856;BME280;5987;53.140;8.904;2023-04-03T09:20:58;103485.53;;;6.20;55.41
11856;BME280;5987;53.140;8.904;2023-04-03T09:24:07;103484.91;;;6.29;56.48
11856;BME280;5987;53.140;8.904;2023-04-03T09:27:12;103471.69;;;6.61;55.78
11856;BME280;5987;53.140;8.904;2023-04-03T09:30:19;103481.59;;;6.36;54.02
11856;BME280;5987;53.140;8.904;2023-04-03T09:33:24;103475.34;;;5.96;59.17
11856;BME280;5987;53.140;8.904;2023-04-03T09:36:42;103470.97;;;5.95;58.13
11856;BME280;5987;53.140;8.904;2023-04-03T09:39:52;103471.16;;;5.67;55.27
11856;BME280;5987;53.140;8.904;2023-04-03T09:43:00;103465.34;;;5.78;58.45
11856;BME280;5987;53.140;8.904;2023-04-03T09:46:30;103471.53;;;5.81;59.64
11856;BME280;5987;53.140;8.904;2023-04-03T09:49:34;103462.66;;;5.75;57.23
11856;BME280;5987;53.140;8.904;2023-04-03T09:52:38;103466.03;;;5.71;58.82
11856;BME280;5987;53.140;8.904;2023-04-03T09:55:44;103455.91;;;5.83;57.04
11856;BME280;5987;53.140;8.904;2023-04-03T09:58:51;103458.09;;;5.66;58.78
11856;BME280;5987;53.140;8.904;2023-04-03T10:02:03;103452.56;;;6.22;59.15
11856;BME280;5987;53.140;8.904;2023-04-03T10:05:39;103451.84;;;5.94;56.60
11856;BME280;5987;53.140;8.904;2023-04-03T10:08:43;103456.72;;;5.80;55.25
11856;BME280;5987;53.140;8.904;2023-04-03T10:12:08;103446.97;;;6.07;55.27
11856;BME280;5987;53.140;8.904;2023-04-03T10:15:21;103444.84;;;5.58;53.47
11856;BME280;5987;53.140;8.904;2023-04-03T10:18:40;103440.22;;;6.15;55.34
11856;BME280;5987;53.140;8.904;2023-04-03T10:21:50;103440.69;;;6.35;53.26
11856;BME280;5987;53.140;8.904;2023-04-03T10:25:05;103442.06;;;6.19;53.91
11856;BME280;5987;53.140;8.904;2023-04-03T10:28:20;103426.13;;;6.86;56.32
11856;BME280;5987;53.140;8.904;2023-04-03T10:31:37;103409.47;;;6.79;53.70
11856;BME280;5987;53.140;8.904;2023-04-03T10:34:54;103426.47;;;6.62;52.67
11856;BME280;5987;53.140;8.904;2023-04-03T10:38:19;103423.03;;;6.23;52.72
11856;BME280;5987;53.140;8.904;2023-04-03T10:41:37;103419.66;;;6.27;54.63
11856;BME280;5987;53.140;8.904;2023-04-03T10:45:15;103420.50;;;6.67;55.70
11856;BME280;5987;53.140;8.904;2023-04-03T10:48:42;103406.97;;;6.44;53.21
11856;BME280;5987;53.140;8.904;2023-04-03T10:51:57;103402.38;;;6.34;54.42
11856;BME280;5987;53.140;8.904;2023-04-03T10:55:21;103388.25;;;6.64;53.88
11856;BME280;5987;53.140;8.904;2023-04-03T10:58:33;103394.69;;;6.81;54.66
11856;BME280;5987;53.140;8.904;2023-04-03T11:01:42;103402.41;;;6.35;51.41
11856;BME280;5987;53.140;8.904;2023-04-03T11:04:52;103395.06;;;7.00;54.59
11856;BME280;5987;53.140;8.904;2023-04-03T11:08:05;103390.03;;;6.66;52.24
11856;BME280;5987;53.140;8.904;2023-04-03T11:11:17;103384.63;;;6.57;53.41
11856;BME280;5987;53.140;8.904;2023-04-03T11:14:28;103376.69;;;6.95;54.67
11856;BME280;5987;53.140;8.904;2023-04-03T11:17:37;103374.69;;;6.83;52.74
11856;BME280;5987;53.140;8.904;2023-04-03T11:20:58;103369.84;;;7.00;53.40
11856;BME280;5987;53.140;8.904;2023-04-03T11:24:17;103371.75;;;7.11;52.66
11856;BME280;5987;53.140;8.904;2023-04-03T11:27:24;103362.31;;;6.73;51.52
11856;BME280;5987;53.140;8.904;2023-04-03T11:30:44;103359.75;;;7.22;51.67
11856;BME280;5987;53.140;8.904;2023-04-03T11:34:00;103370.25;;;7.24;50.50
11856;BME280;5987;53.140;8.904;2023-04-03T11:37:27;103347.44;;;7.65;52.35
11856;BME280;5987;53.140;8.904;2023-04-03T11:40:36;103350.66;;;7.00;50.37
11856;BME280;5987;53.140;8.904;2023-04-03T11:43:56;103348.91;;;7.49;49.73
11856;BME280;5987;53.140;8.904;2023-04-03T11:47:02;103347.50;;;7.70;50.61
11856;BME280;5987;53.140;8.904;2023-04-03T11:50:40;103338.13;;;7.86;51.35
11856;BME280;5987;53.140;8.904;2023-04-03T11:53:44;103335.41;;;7.77;50.57
11856;BME280;5987;53.140;8.904;2023-04-03T11:56:55;103343.28;;;7.26;51.24
11856;BME280;5987;53.140;8.904;2023-04-03T11:59:58;103334.59;;;7.27;53.66
11856;BME280;5987;53.140;8.904;2023-04-03T12:03:07;103330.44;;;7.38;50.83
11856;BME280;5987;53.140;8.904;2023-04-03T12:06:59;103319.84;;;7.86;52.42
11856;BME280;5987;53.140;8.904;2023-04-03T12:10:18;103333.13;;;8.00;53.14
11856;BME280;5987;53.140;8.904;2023-04-03T12:13:33;103327.19;;;7.55;53.32
11856;BME280;5987;53.140;8.904;2023-04-03T12:16:45;103322.06;;;7.60;53.75
11856;BME280;5987;53.140;8.904;2023-04-03T12:19:50;103317.16;;;7.26;54.09
11856;BME280;5987;53.140;8.904;2023-04-03T12:23:24;103319.59;;;7.70;52.53
11856;BME280;5987;53.140;8.904;2023-04-03T12:26:36;103313.06;;;7.42;54.19
11856;BME280;5987;53.140;8.904;2023-04-03T12:30:00;103306.66;;;7.23;53.48
11856;BME280;5987;53.140;8.904;2023-04-03T12:33:27;103311.63;;;7.08;53.26
11856;BME280;5987;53.140;8.904;2023-04-03T12:36:47;103306.41;;;6.62;56.30
11856;BME280;5987;53.140;8.904;2023-04-03T12:40:05;103299.69;;;6.75;57.49
11856;BME280;5987;53.140;8.904;2023-04-03T12:43:28;103303.19;;;6.75;58.20
11856;BME280;5987;53.140;8.904;2023-04-03T12:46:42;103294.56;;;6.79;54.22
11856;BME280;5987;53.140;8.904;2023-04-03T12:49:50;103293.41;;;7.12;54.74
11856;BME280;5987;53.140;8.904;2023-04-03T12:53:01;103285.81;;;7.26;52.12
11856;BME280;5987;53.140;8.904;2023-04-03T12:56:24;103285.47;;;7.60;53.87
11856;BME280;5987;53.140;8.904;2023-04-03T12:59:28;103277.66;;;7.61;49.37
11856;BME280;5987;53.140;8.904;2023-04-03T13:02:34;103275.97;;;7.66;50.51
11856;BME280;5987;53.140;8.904;2023-04-03T13:05:39;103278.41;;;7.54;51.10
11856;BME280;5987;53.140;8.904;2023-04-03T13:08:52;103273.16;;;7.52;52.66
11856;BME280;5987;53.140;8.904;2023-04-03T13:12:01;103266.56;;;7.79;51.08
11856;BME280;5987;53.140;8.904;2023-04-03T13:15:15;103269.06;;;7.71;51.55
11856;BME280;5987;53.140;8.904;2023-04-03T13:18:29;103261.84;;;8.18;53.20
11856;BME280;5987;53.140;8.904;2023-04-03T13:21:35;103269.41;;;8.65;59.54
11856;BME280;5987;53.140;8.904;2023-04-03T13:24:39;103262.44;;;7.95;52.97
11856;BME280;5987;53.140;8.904;2023-04-03T13:27:44;103252.16;;;7.48;54.33
11856;BME280;5987;53.140;8.904;2023-04-03T13:31:01;103258.19;;;7.44;55.36
11856;BME280;5987;53.140;8.904;2023-04-03T13:34:10;103259.16;;;7.49;53.86
11856;BME280;5987;53.140;8.904;2023-04-03T13:37:23;103251.47;;;7.58;53.45
11856;BME280;5987;53.140;8.904;2023-04-03T13:40:27;103245.69;;;7.81;50.86
11856;BME280;5987;53.140;8.904;2023-04-03T13:43:41;103245.88;;;7.96;50.99
11856;BME280;5987;53.140;8.904;2023-04-03T13:46:45;103239.63;;;7.85;53.56
11856;BME280;5987;53.140;8.904;2023-04-03T13:50:02;103232.53;;;7.78;53.38
11856;BME280;5987;53.140;8.904;2023-04-03T13:53:13;103232.59;;;7.81;52.21
11856;BME280;5987;53.140;8.904;2023-04-03T13:56:24;103233.88;;;8.15;52.05
11856;BME280;5987;53.140;8.904;2023-04-03T13:59:32;103221.25;;;7.80;51.20
11856;BME280;5987;53.140;8.904;2023-04-03T14:02:39;103233.72;;;8.01;50.89
11856;BME280;5987;53.140;8.904;2023-04-03T14:05:42;103223.78;;;7.76;53.95
11856;BME280;5987;53.140;8.904;2023-04-03T14:08:47;103230.31;;;7.43;55.68
11856;BME280;5987;53.140;8.904;2023-04-03T14:11:54;103225.38;;;7.06;57.40
11856;BME280;5987;53.140;8.904;2023-04-03T14:15:02;103223.44;;;6.94;56.60
11856;BME280;5987;53.140;8.904;2023-04-03T14:18:06;103216.47;;;7.50;55.58
11856;BME280;5987;53.140;8.904;2023-04-03T14:21:12;103215.09;;;7.77;55.54
11856;BME280;5987;53.140;8.904;2023-04-03T14:24:17;103216.91;;;7.81;53.63
11856;BME280;5987;53.140;8.904;2023-04-03T14:27:26;103214.50;;;7.98;54.49
11856;BME280;5987;53.140;8.904;2023-04-03T14:30:34;103218.78;;;7.93;51.82
11856;BME280;5987;53.140;8.904;2023-04-03T14:33:41;103219.50;;;7.79;51.65
11856;BME280;5987;53.140;8.904;2023-04-03T14:36:45;103216.31;;;8.03;50.93
11856;BME280;5987;53.140;8.904;2023-04-03T14:39:50;103209.19;;;7.93;51.13
11856;BME280;5987;53.140;8.904;2023-04-03T14:42:55;103211.56;;;7.75;52.35
11856;BME280;5987;53.140;8.904;2023-04-03T14:46:01;103206.03;;;7.50;53.46
11856;BME280;5987;53.140;8.904;2023-04-03T14:49:14;103204.66;;;7.77;54.12
11856;BME280;5987;53.140;8.904;2023-04-03T14:52:22;103203.75;;;8.47;52.99
11856;BME280;5987;53.140;8.904;2023-04-03T14:55:27;103199.84;;;8.12;51.20
11856;BME280;5987;53.140;8.904;2023-04-03T14:58:31;103192.56;;;7.85;50.04
11856;BME280;5987;53.140;8.904;2023-04-03T15:01:36;103198.91;;;8.07;49.58
11856;BME280;5987;53.140;8.904;2023-04-03T15:04:40;103196.59;;;8.33;50.67
11856;BME280;5987;53.140;8.904;2023-04-03T15:07:49;103198.56;;;8.53;52.60
11856;BME280;5987;53.140;8.904;2023-04-03T15:10:56;103200.47;;;7.93;53.37
11856;BME280;5987;53.140;8.904;2023-04-03T15:14:01;103191.59;;;7.78;54.79
11856;BME280;5987;53.140;8.904;2023-04-03T15:17:12;103180.91;;;7.63;55.36
11856;BME280;5987;53.140;8.904;2023-04-03T15:20:22;103189.94;;;7.85;55.66
11856;BME280;5987;53.140;8.904;2023-04-03T15:23:26;103182.22;;;7.97;52.70
11856;BME280;5987;53.140;8.904;2023-04-03T15:26:31;103174.63;;;8.19;51.00
11856;BME280;5987;53.140;8.904;2023-04-03T15:29:36;103173.41;;;7.89;50.45
11856;BME280;5987;53.140;8.904;2023-04-03T15:32:41;103175.69;;;7.63;50.51
11856;BME280;5987;53.140;8.904;2023-04-03T15:35:45;103177.50;;;7.68;49.89
11856;BME280;5987;53.140;8.904;2023-04-03T15:38:49;103170.03;;;7.98;49.40
11856;BME280;5987;53.140;8.904;2023-04-03T15:41:53;103160.56;;;8.11;50.51
11856;BME280;5987;53.140;8.904;2023-04-03T15:44:57;103164.72;;;7.93;51.54
11856;BME280;5987;53.140;8.904;2023-04-03T15:48:03;103158.38;;;7.71;51.08
11856;BME280;5987;53.140;8.904;2023-04-03T15:51:07;103158.44;;;7.77;51.11
11856;BME280;5987;53.140;8.904;2023-04-03T15:54:10;103154.16;;;7.84;52.35
11856;BME280;5987;53.140;8.904;2023-04-03T15:57:14;103153.94;;;7.65;51.18
11856;BME280;5987;53.140;8.904;2023-04-03T16:00:18;103159.00;;;7.53;53.21
11856;BME280;5987;53.140;8.904;2023-04-03T16:03:23;103149.59;;;7.69;52.89
11856;BME280;5987;53.140;8.904;2023-04-03T16:06:27;103151.53;;;7.82;53.23
11856;BME280;5987;53.140;8.904;2023-04-03T16:09:33;103151.97;;;7.49;51.31
11856;BME280;5987;53.140;8.904;2023-04-03T16:12:37;103154.66;;;7.55;52.33
11856;BME280;5987;53.140;8.904;2023-04-03T16:15:41;103151.31;;;7.65;52.56
11856;BME280;5987;53.140;8.904;2023-04-03T16:18:47;103149.75;;;7.80;51.52
11856;BME280;5987;53.140;8.904;2023-04-03T16:21:53;103152.41;;;7.83;50.81
11856;BME280;5987;53.140;8.904;2023-04-03T16:24:58;103157.44;;;7.67;52.77
11856;BME280;5987;53.140;8.904;2023-04-03T16:28:03;103146.22;;;7.76;53.88
11856;BME280;5987;53.140;8.904;2023-04-03T16:31:08;103149.34;;;7.47;55.52
11856;BME280;5987;53.140;8.904;2023-04-03T16:34:13;103144.66;;;7.23;54.98
11856;BME280;5987;53.140;8.904;2023-04-03T16:37:19;103141.84;;;7.11;54.53